Time;durP1;ratioP1;P1;durP2;ratioP2;P2;SDS_P1;SDS_P2;PMS_P1;PMS_P2;Temp;Humidity;BMP_temperature;BMP_pressure;BME280_temperature;BME280_humidity;BME280_pressure;Samples;Min_cycle;Max_cycle;Signal;HPM_P1;HPM_P2
2022/10/22 00:02:30;;;;;;;4.40;2.03;;;;;;;18.84;65.31;96433.94;10564253;28;20020;-30
2022/10/22 00:07:31;;;;;;;4.80;2.33;;;;;;;18.89;65.59;96442.31;10562659;27;20088;-30
2022/10/22 00:12:32;;;;;;;2.88;1.90;;;;;;;18.93;70.23;96461.78;10561858;28;20042;-29
2022/10/22 00:17:33;;;;;;;5.15;2.03;;;;;;;18.93;70.65;96474.47;10559916;28;20050;-29
2022/10/22 00:22:33;;;;;;;2.40;1.73;;;;;;;19.00;68.20;96496.41;10551579;28;20054;-29
2022/10/22 00:27:34;;;;;;;2.67;1.77;;;;;;;18.99;67.49;96518.38;10560779;28;20274;-29
2022/10/22 00:32:34;;;;;;;4.05;1.83;;;;;;;18.91;66.69;96499.81;10560909;27;20046;-29
2022/10/22 00:37:34;;;;;;;3.58;2.17;;;;;;;18.93;66.65;96484.59;10551174;28;20032;-29
2022/10/22 00:42:35;;;;;;;5.47;1.83;;;;;;;18.93;66.13;96482.06;10557600;27;20043;-30
2022/10/22 00:47:53;;;;;;;3.20;1.50;;;;;;;18.93;66.98;96497.28;10545799;28;20028;-29
2022/10/22 00:52:56;;;;;;;2.40;1.75;;;;;;;18.92;66.10;96495.59;10559426;27;20346;-30
2022/10/22 00:57:57;;;;;;;5.97;1.90;;;;;;;18.91;65.99;96512.50;10563182;28;20231;-29
2022/10/22 01:02:58;;;;;;;4.35;1.67;;;;;;;18.89;65.87;96513.34;10557590;28;20062;-30
2022/10/22 01:07:58;;;;;;;3.42;1.85;;;;;;;18.90;65.68;96507.44;10557164;28;20039;-29
2022/10/22 01:13:17;;;;;;;3.13;2.40;;;;;;;18.93;68.83;96502.34;10569308;27;20042;-29
2022/10/22 01:18:23;;;;;;;3.22;1.73;;;;;;;18.94;70.50;96493.88;10552827;28;20058;-29
2022/10/22 01:23:42;;;;;;;3.65;1.67;;;;;;;18.99;70.43;96498.09;10558248;28;20031;-29
2022/10/22 01:29:03;;;;;;;2.72;1.23;;;;;;;18.99;67.49;96487.13;10567832;28;20028;-29
2022/10/22 01:34:07;;;;;;;2.75;1.48;;;;;;;18.83;66.82;96458.44;10552303;28;20127;-31
2022/10/22 01:39:08;;;;;;;3.70;1.70;;;;;;;18.88;66.40;96466.88;10571783;27;20058;-29
2022/10/22 01:44:39;;;;;;;4.53;2.28;;;;;;;18.93;66.66;96479.53;10558507;28;20036;-31
2022/10/22 01:49:49;;;;;;;2.92;1.40;;;;;;;18.93;66.60;96482.06;10564024;28;20113;-30
2022/10/22 01:55:10;;;;;;;3.08;1.60;;;;;;;18.93;66.95;96492.22;10560464;28;20040;-29
2022/10/22 02:00:15;;;;;;;2.83;1.63;;;;;;;18.93;67.08;96497.28;10552012;28;20035;-29
2022/10/22 02:05:23;;;;;;;2.33;1.70;;;;;;;18.92;66.60;96539.56;10578003;28;20024;-29
2022/10/22 02:10:24;;;;;;;2.08;1.70;;;;;;;18.93;66.71;96548.03;10534885;28;20043;-30
2022/10/22 02:15:28;;;;;;;2.05;1.60;;;;;;;18.89;67.17;96546.34;10563545;28;20032;-29
2022/10/22 02:20:32;;;;;;;2.05;1.50;;;;;;;18.92;70.24;96549.69;10561368;28;20508;-29
2022/10/22 02:25:37;;;;;;;2.45;1.45;;;;;;;18.96;69.96;96546.31;10558778;28;20093;-29
2022/10/22 02:30:42;;;;;;;1.85;1.02;;;;;;;18.98;68.18;96548.81;10560610;28;20512;-29
2022/10/22 02:35:44;;;;;;;2.65;1.55;;;;;;;18.95;67.16;96557.31;10554107;28;20043;-29
2022/10/22 02:40:45;;;;;;;3.25;1.33;;;;;;;18.92;66.64;96536.19;10571501;28;20406;-30
2022/10/22 02:45:46;;;;;;;2.25;1.30;;;;;;;18.92;67.43;96528.56;10559681;28;20028;-30
2022/10/22 02:50:46;;;;;;;2.88;1.90;;;;;;;18.92;66.87;96531.94;10565909;28;20036;-30
2022/10/22 02:55:47;;;;;;;4.60;1.70;;;;;;;18.93;67.35;96532.81;10551831;28;20028;-29
2022/10/22 03:00:48;;;;;;;2.67;1.33;;;;;;;18.91;66.35;96502.34;10572523;28;20110;-30
2022/10/22 03:05:49;;;;;;;5.63;1.83;;;;;;;18.91;66.12;96499.00;10560107;28;20674;-29
2022/10/22 03:10:50;;;;;;;4.05;1.60;;;;;;;18.91;66.14;96493.91;10553305;28;20035;-29
2022/10/22 03:15:50;;;;;;;2.30;1.37;;;;;;;18.89;66.01;96488.84;10562992;28;20334;-29
2022/10/22 03:21:05;;;;;;;4.03;1.60;;;;;;;18.92;68.59;96508.28;10554090;28;20040;-30
2022/10/22 03:26:06;;;;;;;4.30;2.03;;;;;;;18.92;69.94;96514.19;10564362;28;20028;-30
2022/10/22 03:31:07;;;;;;;3.30;1.20;;;;;;;18.91;69.87;96501.53;10566088;28;20035;-29
2022/10/22 03:36:08;;;;;;;2.63;1.67;;;;;;;18.96;68.09;96499.78;10562807;28;20032;-30
2022/10/22 03:41:09;;;;;;;3.28;1.48;;;;;;;18.94;67.27;96488.81;10566288;28;20023;-30
2022/10/22 03:46:09;;;;;;;3.63;1.30;;;;;;;18.92;66.79;96493.06;10561462;28;20521;-29
2022/10/22 03:51:09;;;;;;;2.20;1.50;;;;;;;18.91;66.62;96504.91;10562254;28;20039;-29
2022/10/22 03:56:11;;;;;;;3.17;1.87;;;;;;;18.91;66.80;96507.44;10566240;28;20036;-29
2022/10/22 04:01:12;;;;;;;2.15;1.35;;;;;;;18.91;66.78;96504.06;10566881;28;20435;-29
2022/10/22 04:06:13;;;;;;;2.30;1.45;;;;;;;18.91;66.17;96504.06;10559433;28;20023;-29
2022/10/22 04:11:14;;;;;;;3.80;1.70;;;;;;;18.91;66.47;96506.59;10562134;28;20481;-30
2022/10/22 04:16:19;;;;;;;2.85;1.55;;;;;;;18.86;66.73;96508.31;10554970;28;20285;-29
2022/10/22 04:21:20;;;;;;;2.38;1.23;;;;;;;18.89;66.23;96521.81;10557937;28;20035;-29
2022/10/22 04:26:20;;;;;;;2.95;1.20;;;;;;;18.91;68.87;96524.38;10567762;28;20505;-29
2022/10/22 04:31:24;;;;;;;2.10;1.38;;;;;;;18.92;69.79;96536.19;10563409;28;20063;-30
2022/10/22 04:36:26;;;;;;;1.80;0.95;;;;;;;18.94;70.06;96532.81;10561225;28;20067;-29
2022/10/22 04:41:32;;;;;;;4.05;1.27;;;;;;;18.94;67.62;96539.56;10565260;28;20039;-30
2022/10/22 04:46:34;;;;;;;3.23;1.10;;;;;;;18.88;66.88;96537.03;10562196;28;20032;-29
2022/10/22 04:51:34;;;;;;;2.75;1.40;;;;;;;18.90;66.93;96533.66;10563463;28;20079;-30
2022/10/22 04:56:35;;;;;;;3.42;1.38;;;;;;;18.90;66.78;96533.66;10563617;28;20019;-29
2022/10/22 05:01:37;;;;;;;2.67;1.20;;;;;;;18.90;66.83;96530.25;10564751;28;20034;-29
2022/10/22 05:06:38;;;;;;;3.47;1.38;;;;;;;18.90;66.44;96540.41;10557566;28;20031;-29
2022/10/22 05:11:42;;;;;;;2.78;1.10;;;;;;;18.89;66.94;96526.03;10564578;28;20564;-30
2022/10/22 05:16:42;;;;;;;3.47;1.48;;;;;;;18.88;66.89;96531.97;10556998;28;20497;-29
2022/10/22 05:21:42;;;;;;;1.30;0.90;;;;;;;18.85;65.58;96535.34;10551954;28;20119;-29
2022/10/22 05:26:43;;;;;;;1.13;0.80;;;;;;;18.83;65.19;96537.06;10564035;28;20097;-30
2022/10/22 05:31:43;;;;;;;3.92;1.73;;;;;;;18.88;69.24;96542.13;10561726;28;20036;-30
2022/10/22 05:36:45;;;;;;;2.63;1.20;;;;;;;18.91;69.67;96554.81;10559148;28;20060;-28
2022/10/22 05:41:45;;;;;;;2.42;1.40;;;;;;;18.96;69.20;96558.16;10563408;28;20104;-29
2022/10/22 05:46:45;;;;;;;2.13;1.27;;;;;;;18.96;66.67;96559.00;10559245;28;20061;-29
2022/10/22 05:51:46;;;;;;;1.90;1.00;;;;;;;18.86;65.75;96548.88;10563085;28;20108;-29
2022/10/22 05:56:46;;;;;;;1.52;1.00;;;;;;;18.89;65.36;96566.63;10560308;28;20655;-29
2022/10/22 06:01:47;;;;;;;2.10;1.00;;;;;;;18.87;65.34;96588.63;10562947;28;20399;-28
2022/10/22 06:06:52;;;;;;;2.27;1.03;;;;;;;18.89;65.39;96594.53;10550809;28;20686;-29
2022/10/22 06:11:53;;;;;;;1.45;0.80;;;;;;;18.85;65.37;96595.41;10554682;28;20409;-30
2022/10/22 06:16:54;;;;;;;2.15;1.30;;;;;;;18.88;65.34;96603.00;10556472;28;20032;-29
2022/10/22 06:21:55;;;;;;;1.63;1.10;;;;;;;18.84;65.34;96608.94;10552465;28;20024;-29
2022/10/22 06:26:55;;;;;;;1.80;0.80;;;;;;;18.81;65.24;96614.84;10555654;28;20036;-29
2022/10/22 06:31:55;;;;;;;1.50;1.05;;;;;;;18.85;65.56;96620.78;10553964;28;20800;-31
2022/10/22 06:36:56;;;;;;;2.67;1.03;;;;;;;18.89;68.07;96628.38;10561887;28;20505;-29
2022/10/22 06:41:56;;;;;;;2.23;1.30;;;;;;;18.90;69.65;96634.25;10568254;28;20386;-30
2022/10/22 06:46:56;;;;;;;4.00;1.10;;;;;;;18.98;69.14;96637.63;10563071;28;20469;-30
2022/10/22 06:51:57;;;;;;;2.93;1.40;;;;;;;18.91;67.46;96641.06;10558272;28;20413;-30
2022/10/22 06:56:57;;;;;;;4.03;1.10;;;;;;;18.90;65.83;96642.72;10565608;28;20482;-30
2022/10/22 07:01:57;;;;;;;2.20;1.00;;;;;;;18.90;65.79;96663.03;10557932;28;20298;-31
2022/10/22 07:06:58;;;;;;;5.33;1.37;;;;;;;18.88;65.59;96667.25;10572728;28;20031;-30
2022/10/22 07:11:58;;;;;;;0.83;0.60;;;;;;;18.88;65.41;96676.56;10565699;28;20071;-30
2022/10/22 07:16:58;;;;;;;1.73;1.10;;;;;;;18.90;65.39;96679.94;10562170;28;20040;-29
2022/10/22 07:21:59;;;;;;;1.40;0.80;;;;;;;18.88;65.75;96691.78;10551505;28;20134;-29
2022/10/22 07:27:00;;;;;;;3.75;1.70;;;;;;;18.76;67.25;96686.75;10561673;28;20105;-29
2022/10/22 07:32:00;;;;;;;9.03;1.47;;;;;;;18.54;67.33;96691.00;10564756;28;20035;-29
2022/10/22 07:37:00;;;;;;;2.27;0.90;;;;;;;18.50;67.46;96704.50;10560391;28;20042;-29
2022/10/22 07:42:01;;;;;;;5.00;1.17;;;;;;;18.63;67.53;96710.41;10565195;28;20285;-29
2022/10/22 07:47:01;;;;;;;3.20;0.90;;;;;;;18.80;67.79;96704.47;10559608;28;20190;-29
2022/10/22 07:52:02;;;;;;;6.10;1.53;;;;;;;18.89;67.83;96713.75;10546785;28;20023;-29
2022/10/22 07:57:02;;;;;;;7.00;0.85;;;;;;;18.94;66.26;96717.13;10564784;28;20508;-28
2022/10/22 08:02:03;;;;;;;5.55;1.10;;;;;;;18.78;65.52;96690.09;10561757;28;20031;-29
2022/10/22 08:07:04;;;;;;;3.45;1.05;;;;;;;18.90;65.39;96723.91;10555686;28;20027;-29
2022/10/22 08:12:04;;;;;;;6.00;0.90;;;;;;;18.89;65.39;96718.81;10560410;28;20497;-29
2022/10/22 08:17:05;;;;;;;3.17;0.85;;;;;;;18.89;65.56;96713.75;10561554;28;20036;-30
2022/10/22 08:22:05;;;;;;;2.65;0.93;;;;;;;18.88;65.61;96717.13;10567776;28;20031;-30
2022/10/22 08:27:06;;;;;;;1.17;0.93;;;;;;;18.87;65.26;96720.53;10557575;28;20028;-30
2022/10/22 08:32:06;;;;;;;4.30;1.00;;;;;;;18.85;65.60;96717.16;10566440;28;20035;-29
2022/10/22 08:37:07;;;;;;;14.73;2.00;;;;;;;18.79;66.32;96727.31;10565699;28;20293;-29
2022/10/22 08:42:28;;;;;;;21.67;3.47;;;;;;;18.89;65.79;96716.28;10561257;28;20051;-30
2022/10/22 08:48:18;;;;;;;3.05;1.15;;;;;;;18.98;69.79;96728.97;10520649;28;20036;-29
2022/10/22 08:53:30;;;;;;;8.65;1.40;;;;;;;19.03;69.02;96729.81;10350813;28;20549;-30
2022/10/22 08:58:49;;;;;;;7.75;1.60;;;;;;;19.03;67.79;96733.19;10524323;28;20055;-30
2022/10/22 09:03:56;;;;;;;8.40;1.55;;;;;;;18.95;68.13;96729.84;10552693;28;20032;-29
2022/10/22 09:08:59;;;;;;;4.45;1.73;;;;;;;18.96;66.73;96733.19;10563568;28;20461;-29
2022/10/22 09:14:00;;;;;;;4.20;1.48;;;;;;;18.94;66.02;96737.44;10561638;28;20039;-29
2022/10/22 09:19:15;;;;;;;4.80;1.63;;;;;;;18.91;65.92;96738.28;10566195;28;20054;-30
2022/10/22 09:24:22;;;;;;;3.72;0.90;;;;;;;18.90;65.67;96741.66;10562315;28;20401;-31
2022/10/22 09:29:31;;;;;;;6.20;1.40;;;;;;;18.88;65.86;96753.50;10553515;28;20028;-29
2022/10/22 09:34:32;;;;;;;5.43;1.05;;;;;;;18.86;65.71;96757.75;10562579;28;20032;-29
2022/10/22 09:39:37;;;;;;;7.47;1.15;;;;;;;18.85;65.84;96755.22;10558465;28;20039;-30
2022/10/22 09:44:37;;;;;;;3.90;1.20;;;;;;;18.86;65.69;96770.44;10562724;28;20446;-29
2022/10/22 09:49:38;;;;;;;3.92;1.50;;;;;;;18.87;66.08;96771.25;10553065;28;20085;-30
2022/10/22 09:54:41;;;;;;;23.83;3.23;;;;;;;18.94;70.33;96778.03;10555162;28;20028;-30
2022/10/22 09:59:43;;;;;;;15.27;2.13;;;;;;;18.99;71.30;96778.88;10561226;28;20126;-28
2022/10/22 10:04:55;;;;;;;5.75;1.70;;;;;;;19.04;69.24;96779.69;10553263;28;20027;-29
2022/10/22 10:09:56;;;;;;;8.93;2.20;;;;;;;19.00;66.35;96775.50;10570157;28;20035;-30
2022/10/22 10:15:28;;;;;;;5.43;2.13;;;;;;;18.94;66.00;96778.88;10565583;28;20081;-29
2022/10/22 10:20:43;;;;;;;6.30;2.20;;;;;;;18.91;65.91;96773.78;10566368;28;20035;-29
2022/10/22 10:25:49;;;;;;;6.45;3.72;;;;;;;18.89;65.97;96777.19;10561425;28;20032;-30
2022/10/22 10:31:10;;;;;;;6.80;3.33;;;;;;;18.90;65.64;96776.31;10566918;28;20038;-29
2022/10/22 10:36:19;;;;;;;5.05;2.55;;;;;;;18.88;65.65;96778.03;10512112;28;20040;-28
2022/10/22 10:41:37;;;;;;;4.82;2.38;;;;;;;18.88;65.62;96772.94;10567116;28;20032;-30
2022/10/22 10:47:01;;;;;;;4.05;1.90;;;;;;;18.86;65.63;96774.66;10569956;28;20504;-29
2022/10/22 10:52:20;;;;;;;4.88;2.10;;;;;;;18.87;65.88;96771.25;10552320;28;20126;-29
2022/10/22 10:57:39;;;;;;;5.63;1.90;;;;;;;18.92;69.48;96774.66;10570623;28;20062;-30
2022/10/22 11:03:04;;;;;;;4.05;1.58;;;;;;;18.93;70.60;96767.03;10565359;28;20097;-29
2022/10/22 11:08:40;;;;;;;6.20;1.80;;;;;;;18.99;70.14;96771.28;10564762;28;20432;-29
2022/10/22 11:14:02;;;;;;;6.65;1.88;;;;;;;18.99;68.12;96767.03;10533152;28;20489;-29
2022/10/22 11:19:10;;;;;;;4.43;1.52;;;;;;;18.98;66.98;96759.41;10564068;28;20035;-29
2022/10/22 11:24:13;;;;;;;5.50;1.50;;;;;;;18.94;65.88;96755.19;10562040;28;20034;-30
2022/10/22 11:29:20;;;;;;;7.70;1.75;;;;;;;18.88;66.08;96745.03;10551416;28;20055;-30
2022/10/22 11:34:34;;;;;;;7.28;1.55;;;;;;;18.90;65.84;96756.88;10563834;28;20515;-30
2022/10/22 11:39:41;;;;;;;3.47;1.55;;;;;;;18.90;65.75;96748.41;10562693;28;20499;-30
2022/10/22 11:45:13;;;;;;;6.50;2.25;;;;;;;18.91;65.72;96756.03;10558820;28;20035;-32
2022/10/22 11:50:40;;;;;;;6.53;1.42;;;;;;;18.91;65.83;96760.28;10556223;28;20053;-29
2022/10/22 11:55:50;;;;;;;2.53;1.27;;;;;;;18.89;66.39;96751.81;10557280;28;20054;-29
2022/10/22 12:00:50;;;;;;;7.20;1.50;;;;;;;18.91;66.13;96755.22;10558678;28;20032;-29
2022/10/22 12:06:14;;;;;;;3.73;1.20;;;;;;;19.04;69.66;96754.31;10545337;28;20027;-28
2022/10/22 12:11:27;;;;;;;2.33;1.13;;;;;;;19.06;69.77;96742.47;10557411;28;20315;-29
2022/10/22 12:16:36;;;;;;;4.03;1.45;;;;;;;19.08;67.76;96746.72;10559169;28;20047;-30
2022/10/22 12:21:38;;;;;;;2.95;1.50;;;;;;;19.02;67.69;96740.81;10561832;28;20077;-30
2022/10/22 12:26:38;;;;;;;5.35;1.60;;;;;;;18.98;66.14;96745.03;10562158;28;20040;-30
2022/10/22 12:31:40;;;;;;;5.60;1.83;;;;;;;18.93;66.73;96739.13;10551908;28;20043;-29
2022/10/22 12:36:41;;;;;;;2.33;1.50;;;;;;;18.91;66.39;96740.81;10552219;28;20393;-29
2022/10/22 12:41:41;;;;;;;4.25;1.40;;;;;;;18.90;66.43;96734.06;10558309;28;20032;-29
2022/10/22 12:46:45;;;;;;;5.25;1.52;;;;;;;18.90;66.44;96736.59;10548842;28;20032;-29
2022/10/22 12:51:47;;;;;;;4.15;2.20;;;;;;;18.89;68.85;96729.84;10552620;28;20043;-29
2022/10/22 12:56:48;;;;;;;11.15;2.05;;;;;;;18.93;66.45;96730.69;10565490;28;20092;-30
2022/10/22 13:01:50;;;;;;;4.05;1.40;;;;;;;18.92;66.42;96721.38;10562368;28;20035;-29
2022/10/22 13:07:11;;;;;;;4.80;1.52;;;;;;;18.99;68.15;96710.38;10555561;27;20092;-29
2022/10/22 13:12:17;;;;;;;6.15;2.05;;;;;;;19.14;70.35;96708.63;10556487;28;20757;-29
2022/10/22 13:17:38;;;;;;;3.85;1.85;;;;;;;19.17;68.28;96710.31;10554643;28;20114;-29
2022/10/22 13:22:51;;;;;;;7.50;2.65;;;;;;;19.10;67.70;96704.41;10548548;28;20052;-30
2022/10/22 13:27:55;;;;;;;11.77;2.13;;;;;;;19.08;67.64;96705.28;10555518;28;20020;-29
2022/10/22 13:33:01;;;;;;;10.48;1.50;;;;;;;18.89;66.74;96699.41;10565512;28;20485;-29
2022/10/22 13:38:02;;;;;;;4.38;1.45;;;;;;;18.94;66.94;96701.91;10561552;28;20042;-29
2022/10/22 13:43:03;;;;;;;6.65;2.25;;;;;;;18.95;68.14;96696.00;10547672;28;20044;-29
2022/10/22 13:48:03;;;;;;;5.47;1.87;;;;;;;18.93;67.63;96701.06;10559008;28;20024;-29
2022/10/22 13:53:04;;;;;;;3.47;1.65;;;;;;;18.96;68.63;96690.06;10556393;28;20042;-29
2022/10/22 13:58:14;;;;;;;4.78;1.85;;;;;;;19.05;69.01;96695.97;10561968;28;20042;-30
2022/10/22 14:03:18;;;;;;;7.63;1.73;;;;;;;19.06;68.83;96704.41;10557789;28;20039;-29
2022/10/22 14:08:21;;;;;;;3.30;1.77;;;;;;;18.95;67.12;96688.38;10561166;28;20054;-28
2022/10/22 14:13:21;;;;;;;4.78;1.40;;;;;;;18.95;67.67;96703.59;10552945;28;20114;-30
2022/10/22 14:18:26;;;;;;;4.70;1.60;;;;;;;18.94;66.97;96697.69;10554271;28;20031;-29
2022/10/22 14:23:29;;;;;;;4.22;1.60;;;;;;;18.92;66.98;96703.63;10554520;28;20497;-30
2022/10/22 14:28:29;;;;;;;2.35;1.30;;;;;;;18.89;66.06;96701.06;10560312;28;20030;-30
2022/10/22 14:33:32;;;;;;;2.80;1.20;;;;;;;18.88;65.93;96699.38;10550211;28;20032;-29
2022/10/22 14:38:32;;;;;;;6.03;1.33;;;;;;;18.89;66.12;96698.53;10547503;28;20386;-29
2022/10/22 14:43:33;;;;;;;3.47;1.30;;;;;;;18.91;68.04;96707.00;10557622;28;20032;-29
2022/10/22 14:48:33;;;;;;;3.80;1.77;;;;;;;19.00;67.95;96696.84;10554585;28;20020;-29
2022/10/22 14:53:33;;;;;;;5.33;1.20;;;;;;;19.02;67.32;96700.22;10552698;28;20038;-29
2022/10/22 14:58:34;;;;;;;4.27;1.43;;;;;;;18.98;67.06;96693.44;10563636;28;20038;-29
2022/10/22 15:03:34;;;;;;;4.80;1.30;;;;;;;18.91;66.55;96686.72;10557294;28;20835;-29
2022/10/22 15:08:35;;;;;;;2.35;1.52;;;;;;;18.90;67.44;96690.94;10566470;28;20435;-30
2022/10/22 15:13:35;;;;;;;2.00;1.03;;;;;;;18.87;65.86;96685.00;10563930;28;20101;-29
2022/10/22 15:18:36;;;;;;;5.28;1.23;;;;;;;18.87;65.71;96690.09;10563051;28;20686;-28
2022/10/22 15:23:38;;;;;;;5.68;1.50;;;;;;;18.85;65.73;96697.69;10561965;28;20039;-29
2022/10/22 15:28:39;;;;;;;4.05;1.30;;;;;;;18.86;65.73;96698.56;10563389;28;20030;-30
2022/10/22 15:33:41;;;;;;;3.97;1.20;;;;;;;18.89;67.91;96712.06;10561721;28;20038;-30
2022/10/22 15:38:41;;;;;;;7.22;1.10;;;;;;;18.91;66.30;96717.16;10555764;27;20097;-30
2022/10/22 15:43:41;;;;;;;3.73;0.80;;;;;;;18.78;64.29;96715.47;10551884;28;20085;-34
2022/10/22 15:48:42;;;;;;;4.90;1.10;;;;;;;18.71;64.62;96716.31;10560297;27;20543;-29
2022/10/22 15:53:43;;;;;;;5.65;1.15;;;;;;;18.77;65.28;96714.63;10533832;28;20417;-30
2022/10/22 15:58:43;;;;;;;7.20;1.30;;;;;;;18.77;65.54;96723.94;10549222;28;20409;-29
2022/10/22 16:03:44;;;;;;;6.70;1.33;;;;;;;18.82;65.30;96727.31;10552254;28;20038;-28
2022/10/22 16:08:44;;;;;;;8.52;1.35;;;;;;;18.78;65.74;96734.09;10541663;27;20031;-31
2022/10/22 16:13:44;;;;;;;2.47;1.30;;;;;;;18.82;65.87;96729.84;10562341;28;20028;-29
2022/10/22 16:18:45;;;;;;;7.10;1.33;;;;;;;18.84;65.29;96731.53;10553711;28;20087;-30
2022/10/22 16:23:45;;;;;;;7.10;2.30;;;;;;;18.95;68.03;96734.91;10566305;28;20365;-30
2022/10/22 16:28:47;;;;;;;6.38;1.92;;;;;;;19.01;67.38;96728.97;10562610;28;20035;-29
2022/10/22 16:33:47;;;;;;;5.45;1.80;;;;;;;18.97;67.11;96727.28;10558074;28;20384;-30
2022/10/22 16:38:48;;;;;;;3.63;1.53;;;;;;;18.94;67.59;96727.28;10556950;28;20047;-29
2022/10/22 16:43:51;;;;;;;3.97;1.67;;;;;;;18.91;68.02;96727.31;10559184;28;20024;-30
2022/10/22 16:48:51;;;;;;;1.77;1.30;;;;;;;18.90;67.68;96723.91;10564414;28;20032;-29
2022/10/22 16:53:54;;;;;;;3.75;1.90;;;;;;;18.90;67.91;96735.72;10551488;28;20035;-30
2022/10/22 16:58:56;;;;;;;3.47;1.50;;;;;;;18.91;67.96;96737.44;10550661;28;20417;-30
2022/10/22 17:03:59;;;;;;;7.57;1.83;;;;;;;18.91;66.21;96750.97;10562852;28;20601;-29
2022/10/22 17:08:59;;;;;;;5.30;1.80;;;;;;;18.87;66.03;96743.38;10556269;27;20039;-29
2022/10/22 17:14:00;;;;;;;3.93;1.73;;;;;;;18.80;69.05;96719.69;10562106;28;20048;-29
2022/10/22 17:19:02;;;;;;;13.02;2.25;;;;;;;19.06;69.21;96750.09;10551655;28;20050;-31
2022/10/22 17:24:03;;;;;;;8.68;1.42;;;;;;;19.03;68.31;96739.97;10552834;28;20126;-30
2022/10/22 17:29:03;;;;;;;3.73;1.37;;;;;;;18.99;67.58;96741.66;10555375;28;20031;-30
2022/10/22 17:34:06;;;;;;;7.97;1.65;;;;;;;18.95;66.49;96744.19;10543321;27;20308;-29
2022/10/22 17:39:07;;;;;;;8.43;1.98;;;;;;;18.90;65.61;96740.81;10549943;28;20040;-29
2022/10/22 17:44:11;;;;;;;2.38;1.17;;;;;;;18.90;65.74;96739.13;10546238;28;20477;-32
2022/10/22 17:49:16;;;;;;;5.45;1.67;;;;;;;18.89;65.56;96745.06;10546426;27;20371;-30
2022/10/22 17:54:16;;;;;;;2.53;1.25;;;;;;;18.88;65.55;96756.06;10545293;28;20440;-31
2022/10/22 17:59:17;;;;;;;4.27;1.40;;;;;;;18.85;67.93;96747.59;10550399;28;20020;-29
2022/10/22 18:04:19;;;;;;;9.25;2.22;;;;;;;18.81;69.74;96713.78;10561599;28;20106;-29
2022/10/22 18:09:19;;;;;;;6.13;1.60;;;;;;;19.03;69.51;96743.34;10565023;28;20314;-29
2022/10/22 18:14:21;;;;;;;6.00;1.40;;;;;;;19.02;69.26;96730.66;10560285;28;20101;-30
2022/10/22 18:19:23;;;;;;;3.40;1.10;;;;;;;19.01;67.45;96739.13;10557167;28;20308;-29
2022/10/22 18:24:23;;;;;;;4.40;1.20;;;;;;;18.94;67.88;96733.22;10557452;28;20417;-29
2022/10/22 18:29:24;;;;;;;3.53;1.10;;;;;;;18.89;66.91;96739.13;10561384;28;20028;-29
2022/10/22 18:34:24;;;;;;;4.33;1.27;;;;;;;18.93;68.49;96740.81;10569833;28;20036;-29
2022/10/22 18:39:24;;;;;;;6.57;1.33;;;;;;;18.92;68.15;96750.13;10568834;28;20755;-28
2022/10/22 18:44:25;;;;;;;3.37;1.23;;;;;;;18.93;68.58;96740.81;10569260;28;20401;-30
2022/10/22 18:49:25;;;;;;;2.13;1.17;;;;;;;18.88;67.99;96738.28;10569235;28;20293;-29
2022/10/22 18:54:25;;;;;;;2.40;1.10;;;;;;;18.91;67.94;96740.00;10568378;28;20671;-29
2022/10/22 18:59:26;;;;;;;7.07;1.40;;;;;;;18.97;69.48;96743.34;10567985;28;20378;-29
2022/10/22 19:04:31;;;;;;;5.93;1.57;;;;;;;19.02;69.10;96740.81;10569864;28;20555;-30
2022/10/22 19:09:32;;;;;;;2.03;1.10;;;;;;;18.99;67.82;96746.72;10562660;27;20031;-32
2022/10/22 19:14:32;;;;;;;2.92;1.58;;;;;;;18.95;67.75;96742.53;10555111;27;20406;-31
2022/10/22 19:19:33;;;;;;;3.70;1.60;;;;;;;18.94;68.12;96742.50;10565682;27;20032;-29
2022/10/22 19:24:34;;;;;;;6.00;1.10;;;;;;;18.91;67.44;96740.81;10561679;28;20027;-29
2022/10/22 19:29:35;;;;;;;2.80;1.23;;;;;;;18.90;67.98;96731.53;10568279;28;20035;-29
2022/10/22 19:34:35;;;;;;;3.03;1.50;;;;;;;18.90;68.11;96730.66;10567729;28;20056;-30
2022/10/22 19:39:36;;;;;;;2.67;1.10;;;;;;;18.91;68.52;96725.59;10564222;28;20055;-29
2022/10/22 19:44:36;;;;;;;3.30;1.33;;;;;;;18.90;68.23;96736.59;10560584;28;20078;-28
2022/10/22 19:49:37;;;;;;;2.42;1.10;;;;;;;18.90;67.94;96725.59;10558846;28;20024;-30
2022/10/22 19:54:39;;;;;;;2.70;1.20;;;;;;;18.95;69.05;96717.16;10566541;28;20044;-29
2022/10/22 19:59:40;;;;;;;2.38;1.08;;;;;;;19.01;68.54;96716.28;10563346;28;20304;-29
2022/10/22 20:04:40;;;;;;;1.58;0.98;;;;;;;18.97;68.11;96717.97;10554211;28;20472;-29
2022/10/22 20:09:41;;;;;;;2.80;0.90;;;;;;;18.94;67.92;96734.91;10561101;28;20482;-35
2022/10/22 20:14:41;;;;;;;2.22;1.00;;;;;;;18.91;67.29;96740.00;10562217;27;20066;-29
2022/10/22 20:19:42;;;;;;;4.77;1.33;;;;;;;18.91;68.35;96745.06;10545013;28;20553;-32
2022/10/22 20:24:43;;;;;;;2.72;1.20;;;;;;;18.84;67.58;96735.75;10572494;28;20289;-33
2022/10/22 20:29:43;;;;;;;3.05;1.05;;;;;;;18.89;68.46;96734.03;10566201;28;20402;-29
2022/10/22 20:34:44;;;;;;;2.83;1.10;;;;;;;18.90;67.71;96740.81;10559082;28;20043;-29
2022/10/22 20:39:44;;;;;;;5.40;1.03;;;;;;;18.91;67.19;96742.53;10566655;28;20046;-29
2022/10/22 20:44:45;;;;;;;2.53;0.93;;;;;;;18.90;68.17;96756.88;10561156;28;20032;-29
2022/10/22 20:49:45;;;;;;;4.53;1.00;;;;;;;18.95;70.36;96736.59;10557452;28;20035;-29
2022/10/22 20:54:47;;;;;;;2.35;1.00;;;;;;;19.02;69.52;96751.78;10553701;28;20035;-29
2022/10/22 20:59:47;;;;;;;3.30;0.93;;;;;;;18.93;68.60;96741.66;10553904;28;20067;-29
2022/10/22 21:04:48;;;;;;;5.88;1.00;;;;;;;18.96;68.30;96740.81;10561985;28;20485;-30
2022/10/22 21:09:48;;;;;;;5.57;0.93;;;;;;;18.92;68.75;96736.59;10560355;28;20036;-30
2022/10/22 21:14:49;;;;;;;4.43;0.90;;;;;;;18.91;68.51;96732.38;10563260;28;20356;-30
2022/10/22 21:19:49;;;;;;;4.13;1.33;;;;;;;18.90;68.34;96728.13;10554006;28;20101;-30
2022/10/22 21:24:49;;;;;;;5.10;1.03;;;;;;;18.90;67.53;96715.44;10565221;28;20055;-30
2022/10/22 21:29:50;;;;;;;2.73;1.10;;;;;;;18.90;68.38;96725.59;10554965;28;20036;-29
2022/10/22 21:34:51;;;;;;;5.68;1.20;;;;;;;18.89;66.55;96708.69;10557362;28;20028;-29
2022/10/22 21:39:51;;;;;;;3.75;1.20;;;;;;;18.80;66.38;96698.56;10562270;28;20506;-29
2022/10/22 21:44:51;;;;;;;3.83;1.00;;;;;;;18.94;68.97;96712.06;10553259;28;20379;-29
2022/10/22 21:49:52;;;;;;;2.23;1.10;;;;;;;18.99;69.31;96710.38;10556156;28;20286;-30
2022/10/22 21:54:52;;;;;;;3.67;1.23;;;;;;;18.97;68.86;96701.91;10561303;28;20285;-30
2022/10/22 21:59:52;;;;;;;2.07;0.97;;;;;;;18.94;68.34;96691.78;10557417;28;20039;-29
2022/10/22 22:04:53;;;;;;;5.60;1.27;;;;;;;18.91;68.58;96696.88;10560027;28;20038;-30
2022/10/22 22:09:54;;;;;;;4.80;1.48;;;;;;;18.91;68.30;96696.88;10558117;28;20153;-29
2022/10/22 22:14:54;;;;;;;3.30;1.10;;;;;;;18.89;68.80;96699.41;10549164;28;20069;-30
2022/10/22 22:19:55;;;;;;;2.80;0.93;;;;;;;18.90;69.17;96703.63;10554187;28;20655;-29
2022/10/22 22:24:55;;;;;;;2.58;0.90;;;;;;;18.89;68.39;96708.69;10556486;28;20039;-29
2022/10/22 22:29:56;;;;;;;2.00;0.93;;;;;;;18.88;68.09;96697.72;10556567;28;20054;-30
2022/10/22 22:34:56;;;;;;;3.77;1.47;;;;;;;18.88;67.92;96701.91;10557036;28;20048;-30
2022/10/22 22:39:56;;;;;;;2.13;0.80;;;;;;;18.92;69.32;96701.09;10561924;28;20036;-29
2022/10/22 22:44:57;;;;;;;2.90;1.23;;;;;;;19.00;69.06;96686.69;10556784;28;20028;-30
2022/10/22 22:49:57;;;;;;;2.20;1.00;;;;;;;18.99;68.63;96692.63;10555871;28;20070;-30
2022/10/22 22:54:57;;;;;;;1.77;1.00;;;;;;;18.95;68.29;96693.44;10558253;28;20036;-29
2022/10/22 22:59:58;;;;;;;2.70;1.00;;;;;;;18.90;68.08;96701.06;10560402;28;20321;-28
2022/10/22 23:04:58;;;;;;;2.10;0.90;;;;;;;18.89;68.43;96696.00;10552935;28;20024;-30
2022/10/22 23:09:59;;;;;;;2.80;0.98;;;;;;;18.89;68.71;96694.31;10557531;28;20510;-29
2022/10/22 23:15:00;;;;;;;1.10;0.70;;;;;;;18.88;68.70;96686.69;10556280;28;20695;-29
2022/10/22 23:20:01;;;;;;;5.13;1.10;;;;;;;18.89;68.85;96693.47;10564336;28;20056;-29
2022/10/22 23:25:02;;;;;;;2.15;0.82;;;;;;;18.88;68.70;96691.78;10552113;28;20068;-30
2022/10/22 23:30:02;;;;;;;4.68;1.10;;;;;;;18.88;68.77;96699.38;10565802;28;20481;-29